TimeMDT,TemperatureF,Dew PointF,Humidity,Sea Level PressureIn,VisibilityMPH,Wind Direction,Wind SpeedMPH,Gust SpeedMPH,PrecipitationIn,Events,Conditions,WindDirDegrees,DateUTC
12:56 AM,55.0,52.0,89,29.88,10.0,West,8.1,-,N/A,,Clear,270,2013-09-10 06:56:00
1:56 AM,55.0,52.0,89,29.90,10.0,West,6.9,-,N/A,,Clear,280,2013-09-10 07:56:00
2:56 AM,54.0,51.1,90,29.91,10.0,WNW,6.9,-,N/A,,Clear,290,2013-09-10 08:56:00
3:56 AM,53.1,51.1,93,29.93,10.0,WSW,4.6,-,N/A,,Clear,240,2013-09-10 09:56:00
4:56 AM,53.1,50.0,89,29.94,10.0,West,6.9,-,N/A,,Clear,260,2013-09-10 10:56:00
5:56 AM,54.0,51.1,90,29.95,10.0,West,8.1,-,N/A,,Clear,280,2013-09-10 11:56:00
6:56 AM,55.0,53.1,93,29.96,10.0,West,8.1,-,0.01,,Clear,280,2013-09-10 12:56:00
7:56 AM,59.0,55.0,87,29.97,10.0,West,10.4,-,N/A,,Clear,270,2013-09-10 13:56:00
8:56 AM,64.0,55.9,75,29.99,10.0,West,12.7,-,N/A,,Clear,280,2013-09-10 14:56:00
9:56 AM,71.1,55.0,57,29.99,10.0,WNW,17.3,-,N/A,,Clear,300,2013-09-10 15:56:00
10:56 AM,75.0,53.1,46,29.99,10.0,WNW,11.5,19.6,N/A,,Clear,300,2013-09-10 16:56:00
11:56 AM,79.0,54.0,42,29.98,10.0,WNW,12.7,-,N/A,,Clear,290,2013-09-10 17:56:00
12:56 PM,80.1,53.1,39,29.98,10.0,WNW,13.8,21.9,N/A,,Clear,300,2013-09-10 18:56:00
1:56 PM,81.0,48.9,33,29.98,10.0,WNW,13.8,21.9,N/A,,Partly Cloudy,300,2013-09-10 19:56:00
2:56 PM,82.0,48.9,31,29.97,10.0,WNW,15.0,26.5,N/A,,Clear,290,2013-09-10 20:56:00
3:56 PM,78.1,50.0,37,29.97,10.0,WNW,15.0,-,N/A,,Partly Cloudy,300,2013-09-10 21:56:00
4:56 PM,81.0,50.0,34,29.97,10.0,NW,16.1,23.0,N/A,,Partly Cloudy,310,2013-09-10 22:56:00
5:56 PM,79.0,51.1,38,29.98,10.0,NNW,13.8,-,N/A,,Clear,330,2013-09-10 23:56:00
6:56 PM,73.0,52.0,48,30.00,10.0,NNW,4.6,-,N/A,,Clear,330,2013-09-11 00:56:00
7:56 PM,64.9,53.1,65,30.02,10.0,Calm,Calm,-,N/A,,Clear,0,2013-09-11 01:56:00
8:56 PM,63.0,52.0,67,30.03,10.0,Calm,Calm,-,N/A,,Clear,0,2013-09-11 02:56:00
9:56 PM,60.1,52.0,75,30.04,10.0,Calm,Calm,-,N/A,,Clear,0,2013-09-11 03:56:00
10:56 PM,57.9,52.0,81,30.04,10.0,Calm,Calm,-,N/A,,Clear,0,2013-09-11 04:56:00
11:56 PM,57.9,51.1,78,30.04,10.0,Calm,Calm,-,N/A,,Clear,0,2013-09-11 05:56:00